Time;durP1;ratioP1;P1;durP2;ratioP2;P2;SDS_P1;SDS_P2;PMS_P1;PMS_P2;Temp;Humidity;BMP_temperature;BMP_pressure;BME280_temperature;BME280_humidity;BME280_pressure;Samples;Min_cycle;Max_cycle;Signal;HPM_P1;HPM_P2
2021/03/11 00:00:53;;;;;;;21.27;4.37;;;;;;;11.69;100.00;99606.02;1759572;79;935502;-76
2021/03/11 00:03:25;;;;;;;18.20;4.30;;;;;;;11.71;100.00;99607.09;1771297;79;936570;-75
2021/03/11 00:05:55;;;;;;;21.07;5.08;;;;;;;11.72;100.00;99597.05;1759550;79;936713;-75
2021/03/11 00:08:25;;;;;;;16.53;4.07;;;;;;;11.73;100.00;99584.79;1771333;79;936599;-75
2021/03/11 00:10:55;;;;;;;20.27;4.13;;;;;;;11.74;100.00;99579.48;1759611;79;936661;-76
2021/03/11 00:13:25;;;;;;;20.13;4.53;;;;;;;11.78;100.00;99577.69;1771237;78;936652;-76
2021/03/11 00:15:55;;;;;;;21.42;4.70;;;;;;;11.77;100.00;99573.26;1759560;79;936657;-76
2021/03/11 00:18:24;;;;;;;18.77;4.47;;;;;;;11.77;100.00;99556.57;1771556;79;936751;-76
2021/03/11 00:20:54;;;;;;;20.90;4.40;;;;;;;11.76;100.00;99554.13;1759659;79;936711;-76
2021/03/11 00:23:24;;;;;;;22.10;4.73;;;;;;;11.75;100.00;99535.23;1771329;79;936527;-76
2021/03/11 00:25:58;;;;;;;19.60;5.10;;;;;;;11.85;100.00;99536.28;1759616;79;936724;-75
2021/03/11 00:28:27;;;;;;;20.73;4.23;;;;;;;11.85;100.00;99520.19;1771350;79;936658;-75
2021/03/11 00:30:57;;;;;;;17.15;3.98;;;;;;;11.87;100.00;99523.45;1760000;79;936640;-76
2021/03/11 00:33:27;;;;;;;20.47;4.57;;;;;;;11.88;100.00;99512.58;1771388;79;936476;-76
2021/03/11 00:35:57;;;;;;;23.57;4.80;;;;;;;11.81;100.00;99498.31;1759796;79;936534;-76
2021/03/11 00:38:27;;;;;;;14.93;4.43;;;;;;;11.80;100.00;99499.48;1771394;79;936696;-76
2021/03/11 00:40:56;;;;;;;26.47;4.83;;;;;;;11.73;100.00;99486.05;1759921;79;946250;-76
2021/03/11 00:43:26;;;;;;;18.33;4.73;;;;;;;11.78;100.00;99485.06;1771428;79;936678;-76
2021/03/11 00:45:56;;;;;;;21.23;4.50;;;;;;;11.73;100.00;99481.05;1759931;79;936581;-76
2021/03/11 00:48:26;;;;;;;20.10;4.00;;;;;;;11.69;100.00;99469.73;1771435;79;936600;-77
2021/03/11 00:50:56;;;;;;;20.68;3.72;;;;;;;11.73;100.00;99472.70;1759700;79;945305;-76
2021/03/11 00:53:26;;;;;;;17.10;3.87;;;;;;;11.70;100.00;99466.38;1771356;79;936488;-77
2021/03/11 00:55:55;;;;;;;19.20;4.20;;;;;;;11.73;100.00;99461.58;1759636;79;936776;-76
2021/03/11 00:58:25;;;;;;;18.20;4.53;;;;;;;11.63;100.00;99459.11;1771466;79;936544;-77
2021/03/11 01:00:55;;;;;;;18.12;3.95;;;;;;;11.64;100.00;99454.59;1759833;79;937798;-76
2021/03/11 01:03:25;;;;;;;19.90;5.03;;;;;;;11.67;100.00;99453.13;1771178;79;936530;-76
2021/03/11 01:05:55;;;;;;;23.18;3.95;;;;;;;11.69;100.00;99465.55;1759801;79;936691;-77
2021/03/11 01:08:25;;;;;;;22.30;5.17;;;;;;;11.65;100.00;99444.28;1771473;79;936626;-76
2021/03/11 01:10:56;;;;;;;23.20;4.43;;;;;;;11.66;100.00;99459.27;1759953;79;936798;-77
2021/03/11 01:13:26;;;;;;;20.60;4.90;;;;;;;11.64;100.00;99460.72;1771486;79;936732;-77
2021/03/11 01:15:56;;;;;;;24.02;5.12;;;;;;;11.62;100.00;99444.37;1759722;78;936632;-76
2021/03/11 01:18:26;;;;;;;17.33;4.57;;;;;;;11.66;100.00;99445.36;1771292;79;936793;-78
2021/03/11 01:20:56;;;;;;;24.65;5.28;;;;;;;11.66;100.00;99449.53;1759713;79;936507;-77
2021/03/11 01:23:26;;;;;;;24.27;5.40;;;;;;;11.62;100.00;99427.69;1771335;79;936724;-78
2021/03/11 01:25:56;;;;;;;28.70;6.55;;;;;;;11.65;100.00;99433.98;1759965;79;936580;-78
2021/03/11 01:28:26;;;;;;;28.97;6.20;;;;;;;11.64;100.00;99423.99;1771248;79;936586;-78
2021/03/11 01:30:55;;;;;;;26.60;6.45;;;;;;;11.69;100.00;99439.70;1759537;79;936600;-77
2021/03/11 01:33:25;;;;;;;28.07;5.67;;;;;;;11.72;100.00;99457.97;1771462;79;936754;-77
2021/03/11 01:35:55;;;;;;;26.40;5.63;;;;;;;11.75;100.00;99446.78;1759917;79;936477;-77
2021/03/11 01:38:25;;;;;;;28.27;6.20;;;;;;;11.84;100.00;99437.30;1771449;79;936677;-77
2021/03/11 01:40:56;;;;;;;28.02;5.87;;;;;;;11.74;100.00;99428.45;1759695;79;936614;-77
2021/03/11 01:43:26;;;;;;;27.17;6.17;;;;;;;11.64;100.00;99417.04;1771469;79;936579;-77
2021/03/11 01:45:56;;;;;;;21.25;5.25;;;;;;;11.60;100.00;99401.33;1759778;79;938415;-77
2021/03/11 01:48:26;;;;;;;23.90;5.13;;;;;;;11.54;100.00;99408.22;1771347;79;936496;-77
2021/03/11 01:50:55;;;;;;;30.67;5.97;;;;;;;11.51;100.00;99398.55;1759869;79;935495;-77
2021/03/11 01:53:25;;;;;;;21.40;4.97;;;;;;;11.29;100.00;99370.93;1771374;79;936506;-77
2021/03/11 01:55:55;;;;;;;25.75;5.78;;;;;;;11.48;100.00;99370.59;1759749;79;936781;-77
2021/03/11 01:58:27;;;;;;;23.33;5.30;;;;;;;11.54;100.00;99359.56;1771441;79;936726;-77
2021/03/11 02:00:56;;;;;;;30.57;6.67;;;;;;;11.46;100.00;99338.96;1759878;79;936458;-77
2021/03/11 02:03:27;;;;;;;28.27;7.10;;;;;;;11.55;100.00;99339.75;1771242;79;936590;-77
2021/03/11 02:05:56;;;;;;;25.23;5.80;;;;;;;11.57;100.00;99334.69;1759669;79;938476;-77
2021/03/11 02:08:27;;;;;;;22.33;6.07;;;;;;;11.58;100.00;99320.22;1771243;79;936610;-77
2021/03/11 02:10:57;;;;;;;26.75;6.80;;;;;;;11.61;100.00;99312.59;1759693;79;938431;-75
2021/03/11 02:13:35;;;;;;;25.37;6.87;;;;;;;11.62;100.00;99300.34;1771420;79;936655;-75
2021/03/11 02:16:13;;;;;;;25.47;5.93;;;;;;;11.60;100.00;99307.61;1759870;78;937189;-75
2021/03/11 02:18:48;;;;;;;26.47;5.90;;;;;;;11.58;100.00;99284.89;1761295;80;934642;-75
2021/03/11 02:21:24;;;;;;;28.80;6.17;;;;;;;11.53;100.00;99272.55;1768419;80;936484;-75
2021/03/11 02:24:37;;;;;;;30.30;7.37;;;;;;;11.66;100.00;99275.70;1756653;80;936805;-76
2021/03/11 02:27:12;;;;;;;33.00;6.30;;;;;;;11.64;100.00;99264.08;1760435;79;936500;-75
2021/03/11 02:29:44;;;;;;;28.73;6.63;;;;;;;11.67;100.00;99253.70;1771831;79;934677;-75
2021/03/11 02:32:16;;;;;;;25.50;6.13;;;;;;;11.69;100.00;99234.70;1760110;79;943327;-76
2021/03/11 02:34:49;;;;;;;25.10;6.67;;;;;;;11.71;100.00;99232.42;1771943;79;934684;-75
2021/03/11 02:37:24;;;;;;;29.23;7.33;;;;;;;11.67;100.00;99201.44;1772082;79;936644;-75
2021/03/11 02:39:57;;;;;;;23.67;5.23;;;;;;;11.66;100.00;99207.57;1760319;79;936677;-75
2021/03/11 02:42:28;;;;;;;25.00;6.40;;;;;;;11.71;100.00;99206.00;1771882;79;936666;-76
2021/03/11 02:44:59;;;;;;;26.20;6.60;;;;;;;11.67;100.00;99186.14;1760340;79;936428;-76
2021/03/11 02:47:30;;;;;;;23.47;5.13;;;;;;;11.66;100.00;99183.93;1771888;79;936506;-75
2021/03/11 02:50:02;;;;;;;26.80;5.60;;;;;;;11.67;100.00;99170.84;1760359;79;936585;-75
2021/03/11 02:52:34;;;;;;;25.60;5.33;;;;;;;11.65;100.00;99172.56;1771854;79;936581;-76
2021/03/11 02:55:05;;;;;;;34.03;6.05;;;;;;;11.57;100.00;99178.16;1760361;79;936443;-75
2021/03/11 02:57:38;;;;;;;23.93;5.53;;;;;;;11.51;100.00;99166.39;1771856;79;934696;-76
2021/03/11 03:00:11;;;;;;;26.23;5.87;;;;;;;11.61;100.00;99165.22;1760224;79;936546;-75
2021/03/11 03:02:44;;;;;;;27.50;6.77;;;;;;;11.51;100.00;99130.84;1771884;79;934655;-75
2021/03/11 03:05:17;;;;;;;23.13;6.00;;;;;;;11.54;100.00;99143.50;1760150;79;936489;-75
2021/03/11 03:07:49;;;;;;;26.10;5.83;;;;;;;11.47;100.00;99147.35;1772082;79;934629;-75
2021/03/11 03:10:22;;;;;;;21.37;5.30;;;;;;;11.51;100.00;99153.09;1771923;79;936527;-75
2021/03/11 03:13:13;;;;;;;25.00;6.90;;;;;;;11.48;100.00;99157.33;1703298;81;936569;-74
2021/03/11 03:15:44;;;;;;;27.37;5.83;;;;;;;11.45;100.00;99139.11;1714351;82;934904;-74
2021/03/11 03:18:16;;;;;;;26.07;6.70;;;;;;;11.36;100.00;99142.74;1695240;81;935550;-75
2021/03/11 03:20:48;;;;;;;28.50;6.13;;;;;;;11.34;100.00;99128.34;1692142;81;934724;-74
2021/03/11 03:23:19;;;;;;;24.07;6.03;;;;;;;11.36;100.00;99126.64;1692059;82;936617;-75
2021/03/11 03:25:49;;;;;;;23.23;5.50;;;;;;;11.40;100.00;99124.25;1692116;83;934827;-75
2021/03/11 03:28:20;;;;;;;31.43;6.73;;;;;;;11.30;100.00;99120.44;1692054;82;936506;-74
2021/03/11 03:30:49;;;;;;;29.40;5.87;;;;;;;11.30;100.00;99123.78;1692153;83;934729;-75
2021/03/11 03:33:19;;;;;;;26.60;6.27;;;;;;;11.25;100.00;99141.45;1692007;83;936629;-75
2021/03/11 03:35:52;;;;;;;26.07;6.50;;;;;;;11.22;100.00;99144.08;1692094;83;934849;-75
2021/03/11 03:38:22;;;;;;;29.53;5.40;;;;;;;11.24;100.00;99130.69;1691986;82;936783;-75
2021/03/11 03:40:52;;;;;;;20.23;4.97;;;;;;;11.25;100.00;99123.98;1680975;82;936556;-75
2021/03/11 03:43:24;;;;;;;26.13;5.87;;;;;;;11.24;100.00;99120.96;1691980;83;936639;-75
2021/03/11 03:45:57;;;;;;;19.73;5.10;;;;;;;11.26;100.00;99136.14;1741042;79;935645;-75
2021/03/11 03:48:32;;;;;;;19.90;5.27;;;;;;;11.32;100.00;99129.84;1769369;79;936622;-75
2021/03/11 03:51:02;;;;;;;21.30;5.65;;;;;;;11.37;100.00;99108.25;1754167;79;936536;-75
2021/03/11 03:53:37;;;;;;;27.07;5.97;;;;;;;11.27;100.00;99102.22;1769413;79;936633;-76
2021/03/11 03:56:13;;;;;;;29.40;6.93;;;;;;;11.23;100.00;99106.25;1754137;79;936487;-75
2021/03/11 03:58:45;;;;;;;29.23;6.20;;;;;;;11.37;100.00;99106.86;1769362;79;934574;-75
2021/03/11 04:01:17;;;;;;;27.43;6.20;;;;;;;11.24;100.00;99107.88;1753996;79;936622;-75
2021/03/11 04:03:49;;;;;;;23.40;5.97;;;;;;;11.12;100.00;99125.82;1769293;79;934971;-75
2021/03/11 04:06:20;;;;;;;28.37;6.30;;;;;;;11.15;100.00;99132.67;1765517;79;936715;-76
2021/03/11 04:08:51;;;;;;;27.63;5.40;;;;;;;10.90;100.00;99139.34;1761757;79;935514;-76
2021/03/11 04:11:21;;;;;;;27.80;6.90;;;;;;;10.45;100.00;99119.44;1762718;79;936479;-75
2021/03/11 04:13:54;;;;;;;35.50;7.53;;;;;;;10.48;100.00;99118.77;1757771;79;935456;-76
2021/03/11 04:16:24;;;;;;;24.50;5.53;;;;;;;10.42;100.00;99131.20;1765805;79;936497;-75
2021/03/11 04:18:55;;;;;;;23.63;6.37;;;;;;;10.50;100.00;99119.28;1757702;79;936228;-75
2021/03/11 04:21:26;;;;;;;30.53;5.77;;;;;;;10.41;100.00;99121.80;1765662;79;936743;-75
2021/03/11 04:23:57;;;;;;;27.60;6.33;;;;;;;10.45;100.00;99122.21;1757755;79;936576;-75
2021/03/11 04:26:27;;;;;;;21.77;6.10;;;;;;;10.52;100.00;99111.20;1765655;79;935698;-76
2021/03/11 04:28:59;;;;;;;29.70;5.83;;;;;;;10.85;100.00;99085.92;1757920;79;935491;-76
2021/03/11 04:31:29;;;;;;;26.67;6.30;;;;;;;10.78;100.00;99079.47;1765646;79;936702;-75
2021/03/11 04:34:00;;;;;;;26.67;5.63;;;;;;;10.79;100.00;99086.66;1757995;79;936709;-76
2021/03/11 04:36:31;;;;;;;24.67;5.07;;;;;;;10.86;100.00;99081.44;1765632;79;935381;-75
2021/03/11 04:39:01;;;;;;;25.57;5.80;;;;;;;10.84;100.00;99092.05;1757973;79;936518;-75
2021/03/11 04:41:32;;;;;;;20.53;6.00;;;;;;;10.91;100.00;99082.62;1765660;79;936696;-75
2021/03/11 04:44:04;;;;;;;28.07;5.97;;;;;;;10.88;100.00;99088.84;1757879;79;936605;-75
2021/03/11 04:46:34;;;;;;;28.00;6.20;;;;;;;10.91;100.00;99098.50;1765646;79;936794;-75
2021/03/11 04:49:05;;;;;;;29.15;6.33;;;;;;;10.54;100.00;99129.15;1757974;79;936576;-75
2021/03/11 04:51:37;;;;;;;20.90;5.53;;;;;;;10.54;100.00;99129.15;1765625;79;934642;-75
2021/03/11 04:54:07;;;;;;;28.10;6.53;;;;;;;10.39;100.00;99136.59;1757779;79;935646;-75
2021/03/11 04:56:38;;;;;;;31.60;7.03;;;;;;;10.41;100.00;99144.00;1765717;79;934974;-75
2021/03/11 04:59:07;;;;;;;32.75;6.55;;;;;;;10.41;100.00;99145.39;1757877;79;936526;-75
2021/03/11 05:01:42;;;;;;;31.07;8.10;;;;;;;10.48;100.00;99149.30;1754079;79;934666;-75
2021/03/11 05:04:13;;;;;;;27.97;6.70;;;;;;;10.46;100.00;99117.48;1757615;79;936695;-75
2021/03/11 05:06:42;;;;;;;29.70;7.03;;;;;;;10.57;100.00;99122.94;1765547;79;934617;-75
2021/03/11 05:09:12;;;;;;;25.67;6.03;;;;;;;10.59;100.00;99117.89;1757649;79;935454;-75
2021/03/11 05:11:44;;;;;;;29.73;6.50;;;;;;;10.71;100.00;99097.21;1765705;79;934920;-76
2021/03/11 05:14:14;;;;;;;28.97;6.70;;;;;;;10.69;100.00;99090.36;1757647;79;936549;-75
2021/03/11 05:16:43;;;;;;;24.18;6.25;;;;;;;10.77;100.00;99092.31;1765604;79;934566;-76
2021/03/11 05:19:13;;;;;;;26.57;6.23;;;;;;;10.71;100.00;99083.33;1757726;79;936508;-75
2021/03/11 05:21:43;;;;;;;28.30;7.63;;;;;;;10.71;100.00;99068.63;1765517;79;934668;-75
2021/03/11 05:24:13;;;;;;;30.27;5.60;;;;;;;10.72;100.00;99070.27;1757782;79;936633;-76
2021/03/11 05:26:43;;;;;;;26.07;5.37;;;;;;;10.74;100.00;99083.26;1765622;79;934580;-75
2021/03/11 05:29:13;;;;;;;28.37;6.00;;;;;;;10.81;100.00;99088.55;1757750;79;936458;-75
2021/03/11 05:31:42;;;;;;;23.33;5.70;;;;;;;10.81;100.00;99075.23;1765691;79;934581;-75
2021/03/11 05:34:12;;;;;;;24.80;5.77;;;;;;;10.77;100.00;99077.86;1757711;79;935475;-75
2021/03/11 05:36:42;;;;;;;25.43;5.67;;;;;;;10.76;100.00;99066.50;1765672;79;934618;-75
2021/03/11 05:39:12;;;;;;;22.43;5.07;;;;;;;10.79;100.00;99067.79;1757808;79;935745;-75
2021/03/11 05:41:44;;;;;;;33.87;6.93;;;;;;;10.71;100.00;99066.66;1765681;79;934724;-76
2021/03/11 05:44:15;;;;;;;32.20;6.60;;;;;;;10.73;100.00;99064.39;1757916;79;936524;-76
2021/03/11 05:46:46;;;;;;;23.53;6.63;;;;;;;10.71;100.00;99059.73;1765830;79;934626;-76
2021/03/11 05:49:17;;;;;;;34.70;6.55;;;;;;;10.72;100.00;99052.22;1769269;79;936602;-75
2021/03/11 05:51:48;;;;;;;28.77;6.47;;;;;;;10.70;100.00;99071.97;1765663;79;934836;-75
2021/03/11 05:54:18;;;;;;;27.22;6.03;;;;;;;10.72;100.00;99061.93;1769284;79;936653;-76
2021/03/11 05:56:48;;;;;;;26.83;6.70;;;;;;;10.59;100.00;99052.64;1765616;79;934606;-75
2021/03/11 05:59:18;;;;;;;24.30;6.17;;;;;;;10.66;100.00;99030.73;1769329;79;936465;-75
2021/03/11 06:01:49;;;;;;;27.53;6.00;;;;;;;10.60;100.00;99040.41;1765441;79;934683;-76
2021/03/11 06:04:19;;;;;;;27.93;5.73;;;;;;;10.70;100.00;99032.27;1769337;79;936497;-76
2021/03/11 06:06:50;;;;;;;24.98;5.90;;;;;;;10.70;100.00;99064.20;1765469;79;934768;-76
2021/03/11 06:09:21;;;;;;;29.27;6.90;;;;;;;10.75;100.00;99036.27;1769278;79;936531;-75
2021/03/11 06:11:51;;;;;;;20.80;5.80;;;;;;;10.71;100.00;99064.45;1754894;79;936601;-75
2021/03/11 06:14:22;;;;;;;27.85;6.22;;;;;;;10.70;100.00;99062.81;1765629;79;935563;-75
2021/03/11 06:16:56;;;;;;;24.80;6.17;;;;;;;10.71;100.00;99060.30;1757693;79;936552;-75
2021/03/11 06:19:26;;;;;;;19.30;5.07;;;;;;;10.69;100.00;99069.55;1765665;79;936731;-75
2021/03/11 06:21:57;;;;;;;26.07;6.00;;;;;;;10.60;100.00;99057.63;1757579;79;936614;-75
2021/03/11 06:24:27;;;;;;;23.23;5.57;;;;;;;10.55;100.00;99046.13;1765633;79;935697;-75
2021/03/11 06:26:57;;;;;;;26.97;5.43;;;;;;;10.53;100.00;99084.48;1757874;79;936715;-75
2021/03/11 06:29:40;;;;;;;25.50;5.03;;;;;;;10.64;100.00;99078.86;1765498;79;936627;-75
2021/03/11 06:32:11;;;;;;;23.13;5.63;;;;;;;10.61;100.00;99087.82;1757727;79;936783;-75
2021/03/11 06:34:43;;;;;;;25.93;6.13;;;;;;;10.73;100.00;99081.63;1765596;79;934696;-75
2021/03/11 06:37:14;;;;;;;18.60;5.00;;;;;;;10.68;100.00;99084.56;1757659;79;936678;-75
2021/03/11 06:39:45;;;;;;;17.30;4.37;;;;;;;10.72;100.00;99080.80;1765658;79;934692;-75
2021/03/11 06:42:17;;;;;;;25.20;5.65;;;;;;;10.84;100.00;99064.84;1756162;79;1051593;-75
2021/03/11 06:44:48;;;;;;;19.47;4.47;;;;;;;10.70;100.00;99082.25;1763833;79;936995;-75
2021/03/11 06:47:19;;;;;;;17.63;4.10;;;;;;;10.74;100.00;99095.75;1769335;79;936643;-75
2021/03/11 06:49:58;;;;;;;14.70;3.60;;;;;;;10.78;100.00;99096.13;1765678;79;934862;-75
2021/03/11 06:52:28;;;;;;;17.93;4.37;;;;;;;10.79;100.00;99090.00;1769444;79;936608;-75
2021/03/11 06:55:03;;;;;;;14.55;4.00;;;;;;;10.85;100.00;99104.80;1753591;79;946683;-75
2021/03/11 06:57:35;;;;;;;20.73;4.10;;;;;;;10.79;100.00;99093.59;1769337;79;936485;-75
2021/03/11 07:00:08;;;;;;;15.53;3.60;;;;;;;11.03;100.00;99113.91;1754109;79;935818;-75
2021/03/11 07:02:39;;;;;;;15.57;4.30;;;;;;;10.90;100.00;99123.25;1768267;79;935062;-75
2021/03/11 07:05:16;;;;;;;13.65;4.17;;;;;;;10.85;100.00;99115.08;1753008;79;938039;-75
2021/03/11 07:07:48;;;;;;;15.73;4.50;;;;;;;10.87;100.00;99148.88;1769512;79;934718;-74
2021/03/11 07:10:26;;;;;;;13.63;3.93;;;;;;;10.96;100.00;99151.08;1765903;79;936513;-75
2021/03/11 07:12:58;;;;;;;13.33;3.37;;;;;;;10.87;100.00;99177.48;1757861;79;935437;-75
2021/03/11 07:15:30;;;;;;;13.13;3.13;;;;;;;10.83;100.00;99154.84;1765595;79;936670;-75
2021/03/11 07:18:01;;;;;;;13.53;3.17;;;;;;;10.79;100.00;99173.31;1757880;79;935429;-75
2021/03/11 07:20:32;;;;;;;11.67;3.20;;;;;;;10.83;100.00;99177.89;1765671;79;936578;-75
2021/03/11 07:23:08;;;;;;;14.20;3.90;;;;;;;10.86;100.00;99181.42;1757811;79;936526;-74
2021/03/11 07:25:40;;;;;;;15.30;3.58;;;;;;;10.84;100.00;99185.09;1765476;79;934659;-76
2021/03/11 07:28:13;;;;;;;12.70;3.47;;;;;;;10.88;100.00;99210.23;1757651;79;935934;-76
2021/03/11 07:30:53;;;;;;;13.57;2.77;;;;;;;10.77;100.00;99215.31;1764429;79;934374;-76
2021/03/11 07:33:24;;;;;;;13.37;3.20;;;;;;;10.77;100.00;99211.72;1769341;79;936486;-76
2021/03/11 07:35:56;;;;;;;11.47;2.60;;;;;;;10.81;100.00;99218.25;1754491;79;936648;-76
2021/03/11 07:38:28;;;;;;;11.10;2.73;;;;;;;10.83;100.00;99224.28;1769457;79;935484;-76
2021/03/11 07:41:00;;;;;;;9.83;2.20;;;;;;;10.85;100.00;99249.78;1754024;79;935485;-76
2021/03/11 07:43:32;;;;;;;9.30;2.60;;;;;;;11.06;100.00;99236.88;1777504;79;934506;-76
2021/03/11 07:46:04;;;;;;;6.20;1.90;;;;;;;10.89;100.00;99254.36;1751796;79;934493;-76
2021/03/11 07:48:35;;;;;;;6.30;2.00;;;;;;;10.94;100.00;99279.20;1769454;79;934449;-75
2021/03/11 07:51:06;;;;;;;8.80;2.47;;;;;;;10.99;100.00;99292.13;1754203;79;934427;-76
2021/03/11 07:53:36;;;;;;;10.93;2.73;;;;;;;10.98;100.00;99307.72;1769584;79;932571;-76
2021/03/11 07:56:07;;;;;;;11.60;2.60;;;;;;;11.11;100.00;99306.75;1754130;79;936521;-75
2021/03/11 07:58:38;;;;;;;9.37;2.70;;;;;;;11.08;100.00;99304.03;1769592;79;934690;-76
2021/03/11 08:01:09;;;;;;;8.70;2.52;;;;;;;11.07;100.00;99314.92;1754263;79;934687;-75
2021/03/11 08:03:42;;;;;;;13.20;2.73;;;;;;;11.00;100.00;99324.86;1769386;79;932679;-75
2021/03/11 08:06:23;;;;;;;8.60;2.77;;;;;;;11.04;100.00;99325.88;1754290;79;936622;-77
2021/03/11 08:08:54;;;;;;;10.63;2.60;;;;;;;11.11;100.00;99342.87;1758423;79;934571;-77
2021/03/11 08:11:34;;;;;;;12.77;2.77;;;;;;;11.14;100.00;99342.21;1766167;79;936704;-76
2021/03/11 08:14:21;;;;;;;9.70;2.67;;;;;;;11.17;100.00;99347.93;1758681;79;936549;-75
2021/03/11 08:16:53;;;;;;;9.57;2.27;;;;;;;11.31;100.00;99346.39;1754431;79;934408;-77
2021/03/11 08:19:51;;;;;;;7.33;2.43;;;;;;;11.43;100.00;99352.11;1769567;79;934496;-76
2021/03/11 08:22:56;;;;;;;8.20;2.03;;;;;;;11.50;100.00;99370.52;1765921;79;934670;-76
2021/03/11 08:25:44;;;;;;;8.27;2.20;;;;;;;11.72;100.00;99368.17;1769439;78;934416;-78
2021/03/11 08:28:42;;;;;;;10.67;2.37;;;;;;;11.68;100.00;99362.39;1754258;79;934499;-76
2021/03/11 08:31:12;;;;;;;8.93;2.60;;;;;;;11.63;100.00;99398.74;1757662;79;936714;-77
2021/03/11 08:33:50;;;;;;;7.30;1.97;;;;;;;11.70;100.00;99368.46;1765914;79;932776;-77
2021/03/11 08:36:36;;;;;;;9.93;2.20;;;;;;;11.34;100.00;99384.64;1769346;79;934534;-77
2021/03/11 08:39:43;;;;;;;11.75;2.30;;;;;;;11.39;100.00;99387.27;1754173;79;934483;-77
2021/03/11 08:42:50;;;;;;;9.70;2.50;;;;;;;11.39;100.00;99395.61;1728847;80;936518;-77
2021/03/11 08:46:05;;;;;;;8.73;2.10;;;;;;;11.42;100.00;99409.67;1765800;79;934428;-77
2021/03/11 08:48:42;;;;;;;8.93;2.40;;;;;;;11.61;100.00;99401.59;1769415;79;934561;-77
2021/03/11 08:51:15;;;;;;;8.47;1.97;;;;;;;11.66;100.00;99407.81;1754188;79;934466;-77
2021/03/11 08:53:47;;;;;;;12.10;2.60;;;;;;;11.63;100.00;99417.39;1765804;79;932344;-77
2021/03/11 08:56:40;;;;;;;11.20;3.00;;;;;;;11.57;100.00;99420.07;1765530;79;936582;-77
2021/03/11 08:59:12;;;;;;;11.77;2.50;;;;;;;11.58;100.00;99425.89;1757779;79;936540;-77
2021/03/11 09:01:45;;;;;;;6.07;1.60;;;;;;;11.63;100.00;99432.69;1765465;79;934677;-77
2021/03/11 09:04:37;;;;;;;10.10;2.60;;;;;;;11.49;100.00;99450.08;1769230;79;934451;-77
2021/03/11 09:07:09;;;;;;;7.78;2.37;;;;;;;11.33;100.00;99445.58;1754200;79;936452;-77
2021/03/11 09:09:41;;;;;;;9.93;2.20;;;;;;;11.55;100.00;99475.21;1769486;79;932534;-77
2021/03/11 09:12:13;;;;;;;9.40;2.70;;;;;;;11.52;100.00;99473.88;1754198;79;934560;-77
2021/03/11 09:14:45;;;;;;;10.60;2.35;;;;;;;11.55;100.00;99480.77;1769350;79;932642;-76
2021/03/11 09:17:17;;;;;;;10.50;2.60;;;;;;;11.49;100.00;99501.52;1765680;79;936627;-77
2021/03/11 09:19:49;;;;;;;10.13;2.50;;;;;;;11.55;100.00;99503.81;1769514;79;934653;-77
2021/03/11 09:22:27;;;;;;;10.33;2.30;;;;;;;11.59;100.00;99500.66;1765534;79;936501;-77
2021/03/11 09:25:17;;;;;;;11.65;2.17;;;;;;;11.63;100.00;99526.67;1757785;79;936512;-77
2021/03/11 09:27:55;;;;;;;6.47;2.03;;;;;;;11.64;100.00;99517.16;1765537;79;934763;-77
2021/03/11 09:30:27;;;;;;;8.90;2.27;;;;;;;11.50;100.00;99526.80;1769392;79;934444;-77
2021/03/11 09:32:59;;;;;;;7.58;2.33;;;;;;;11.45;100.00;99538.89;1754016;79;934710;-77
2021/03/11 09:35:29;;;;;;;8.23;1.97;;;;;;;11.36;100.00;99543.61;1768049;79;934462;-77
2021/03/11 09:38:01;;;;;;;7.30;1.92;;;;;;;11.38;100.00;99553.25;1754168;79;934494;-77
2021/03/11 09:40:36;;;;;;;9.98;2.62;;;;;;;11.33;100.00;99551.20;1769388;79;934675;-77
2021/03/11 09:43:15;;;;;;;10.03;2.30;;;;;;;11.36;100.00;99548.59;1754122;79;934585;-77
2021/03/11 09:45:48;;;;;;;8.03;2.13;;;;;;;11.31;100.00;99547.91;1769333;79;934723;-77
2021/03/11 09:48:21;;;;;;;9.83;2.67;;;;;;;11.39;100.00;99550.72;1765742;79;934618;-77
2021/03/11 09:51:00;;;;;;;10.27;3.03;;;;;;;11.27;100.00;99542.75;1757815;79;933658;-78
2021/03/11 09:53:36;;;;;;;7.00;1.83;;;;;;;11.23;100.00;99550.09;1765504;79;936476;-77
2021/03/11 09:56:08;;;;;;;9.90;1.98;;;;;;;11.41;100.00;99555.97;1757851;79;934491;-77
2021/03/11 09:58:43;;;;;;;7.93;1.70;;;;;;;11.57;100.00;99537.69;1765724;79;932602;-77
2021/03/11 10:01:14;;;;;;;5.70;1.20;;;;;;;11.68;100.00;99550.13;1757810;79;934431;-77
2021/03/11 10:03:45;;;;;;;6.33;1.40;;;;;;;11.72;100.00;99550.36;1764894;79;931833;-77
2021/03/11 10:06:18;;;;;;;7.77;1.60;;;;;;;11.77;100.00;99552.97;1769316;79;934447;-77
2021/03/11 10:08:50;;;;;;;3.83;1.20;;;;;;;11.90;100.00;99563.70;1765620;79;932581;-77
2021/03/11 10:11:23;;;;;;;5.10;1.40;;;;;;;11.89;100.00;99561.52;1769335;79;934571;-77
2021/03/11 10:14:00;;;;;;;4.87;1.27;;;;;;;11.87;100.00;99555.45;1754015;79;934487;-78
2021/03/11 10:16:44;;;;;;;6.50;1.50;;;;;;;11.65;100.00;99575.83;1768488;79;934422;-77
2021/03/11 10:19:16;;;;;;;7.93;1.67;;;;;;;11.72;100.00;99582.35;1754061;79;933837;-77
2021/03/11 10:21:53;;;;;;;6.37;1.77;;;;;;;11.73;100.00;99574.23;1769424;79;932526;-77
2021/03/11 10:24:37;;;;;;;7.70;1.87;;;;;;;11.90;100.00;99575.66;1765607;79;934698;-77
2021/03/11 10:27:22;;;;;;;8.58;1.70;;;;;;;12.17;100.00;99571.76;1757914;79;934633;-77
2021/03/11 10:29:52;;;;;;;5.30;1.27;;;;;;;12.17;100.00;99571.76;1765117;79;932573;-77
2021/03/11 10:32:26;;;;;;;7.83;1.40;;;;;;;12.36;100.00;99577.84;1768452;79;934473;-77
2021/03/11 10:34:56;;;;;;;7.33;1.70;;;;;;;12.45;100.00;99577.23;1754171;79;934432;-77
2021/03/11 10:37:28;;;;;;;5.43;1.40;;;;;;;12.41;100.00;99577.64;1769526;79;934464;-77
2021/03/11 10:40:01;;;;;;;3.92;1.42;;;;;;;12.44;100.00;99579.80;1754231;79;934414;-77
2021/03/11 10:42:42;;;;;;;5.27;1.40;;;;;;;12.43;100.00;99582.90;1769275;79;933733;-77
2021/03/11 10:45:15;;;;;;;4.43;1.00;;;;;;;12.31;100.00;99604.45;1754029;79;934662;-77
2021/03/11 10:47:57;;;;;;;4.50;1.00;;;;;;;12.32;100.00;99586.59;1769424;79;932560;-77
2021/03/11 10:50:28;;;;;;;2.67;0.67;;;;;;;12.28;100.00;99601.72;1765651;79;934648;-77
2021/03/11 10:52:58;;;;;;;3.50;0.70;;;;;;;12.02;100.00;99599.52;1757980;79;933315;-77
2021/03/11 10:55:31;;;;;;;3.57;0.70;;;;;;;12.11;100.00;99597.53;1765642;79;934365;-77
2021/03/11 10:58:04;;;;;;;1.32;0.70;;;;;;;11.91;100.00;99603.73;1758001;79;934366;-77
2021/03/11 11:00:35;;;;;;;2.97;0.63;;;;;;;11.79;100.00;99612.72;1765689;79;934431;-77
2021/03/11 11:03:06;;;;;;;2.33;0.77;;;;;;;11.71;100.00;99629.34;1757737;79;934541;-77
2021/03/11 11:05:36;;;;;;;1.23;0.60;;;;;;;11.46;100.00;99647.58;1765615;79;932302;-77
2021/03/11 11:08:08;;;;;;;1.50;0.60;;;;;;;11.30;100.00;99646.34;1757947;79;934451;-77
2021/03/11 11:10:41;;;;;;;1.23;0.50;;;;;;;11.22;100.00;99649.33;1765646;79;932574;-77
2021/03/11 11:13:11;;;;;;;4.63;1.20;;;;;;;11.00;100.00;99658.25;1757738;79;934628;-77
2021/03/11 11:15:42;;;;;;;1.97;0.63;;;;;;;10.76;100.00;99664.97;1765717;79;931460;-76
2021/03/11 11:18:13;;;;;;;2.60;0.53;;;;;;;10.57;100.00;99657.37;1757695;79;933421;-77
2021/03/11 11:20:45;;;;;;;2.97;1.10;;;;;;;10.74;100.00;99662.27;1765657;79;932657;-77
2021/03/11 11:23:16;;;;;;;4.70;1.03;;;;;;;11.01;100.00;99658.52;1757151;79;984158;-77
2021/03/11 11:25:46;;;;;;;5.03;1.07;;;;;;;11.11;100.00;99659.65;1765572;79;932536;-77
2021/03/11 11:28:17;;;;;;;3.13;0.90;;;;;;;11.26;100.00;99653.11;1769376;79;934411;-77
2021/03/11 11:30:47;;;;;;;4.47;1.07;;;;;;;11.47;100.00;99645.63;1765675;79;932549;-77
2021/03/11 11:33:17;;;;;;;5.00;1.30;;;;;;;11.35;100.00;99656.76;1769428;79;933382;-77
2021/03/11 11:35:46;;;;;;;4.63;1.00;;;;;;;11.53;100.00;99661.84;1765618;79;932347;-77
2021/03/11 11:38:16;;;;;;;4.83;1.17;;;;;;;11.57;100.00;99657.27;1769301;79;933474;-77